createdAt,value
2022-11-21T00:01:43.440Z,102294.23
2022-11-21T00:04:13.663Z,102291.44
2022-11-21T00:06:43.351Z,102290.54
2022-11-21T00:09:12.643Z,102292.77
2022-11-21T00:11:42.399Z,102292.27
2022-11-21T00:14:11.808Z,102295.09
2022-11-21T00:16:41.022Z,102300.29
2022-11-21T00:19:10.622Z,102299.52
2022-11-21T00:21:39.974Z,102298.30
2022-11-21T00:24:11.219Z,102302.19
2022-11-21T00:26:40.375Z,102299.50
2022-11-21T00:29:09.847Z,102297.38
2022-11-21T00:31:39.646Z,102291.25
2022-11-21T00:34:10.473Z,102293.11
2022-11-21T00:36:39.765Z,102290.34
2022-11-21T00:39:09.194Z,102288.65
2022-11-21T00:41:38.692Z,102290.98
2022-11-21T00:44:08.389Z,102291.21
2022-11-21T00:46:37.625Z,102290.86
2022-11-21T00:49:07.447Z,102293.27
2022-11-21T00:51:37.023Z,102293.25
2022-11-21T00:54:06.575Z,102294.30
2022-11-21T00:56:35.948Z,102298.52
2022-11-21T00:59:05.943Z,102306.92
2022-11-21T01:01:35.345Z,102306.39
2022-11-21T01:04:04.991Z,102306.53
2022-11-21T01:06:35.109Z,102309.95
2022-11-21T01:09:05.144Z,102315.02
2022-11-21T01:11:34.737Z,102316.21
2022-11-21T01:14:04.601Z,102316.61
2022-11-21T01:16:34.125Z,102315.63
2022-11-21T01:19:03.533Z,102317.48
2022-11-21T01:21:33.753Z,102322.27
2022-11-21T01:24:03.944Z,102323.29
2022-11-21T01:26:39.150Z,102327.05
2022-11-21T01:29:09.820Z,102326.61
2022-11-21T01:31:39.809Z,102321.20
2022-11-21T01:34:12.267Z,102322.11
2022-11-21T01:36:42.224Z,102320.10
2022-11-21T01:39:12.962Z,102321.23
2022-11-21T01:41:44.514Z,102329.23
2022-11-21T01:44:25.726Z,102330.35
2022-11-21T01:46:55.814Z,102328.45
2022-11-21T01:49:30.795Z,102326.58
2022-11-21T01:52:13.001Z,102321.27
2022-11-21T01:54:49.418Z,102321.88
2022-11-21T01:57:25.697Z,102322.13
2022-11-21T02:00:04.271Z,102321.69
2022-11-21T02:02:37.331Z,102327.90
2022-11-21T02:05:08.491Z,102330.96
2022-11-21T02:10:24.798Z,102330.23
2022-11-21T02:12:58.158Z,102329.14
2022-11-21T02:15:32.487Z,102331.80
2022-11-21T02:18:01.940Z,102327.77
2022-11-21T02:20:32.559Z,102322.26
2022-11-21T02:23:13.331Z,102316.50
2022-11-21T02:25:44.175Z,102311.44
2022-11-21T02:28:19.151Z,102313.30
2022-11-21T02:30:48.995Z,102311.67
2022-11-21T02:33:19.023Z,102308.67
2022-11-21T02:36:01.721Z,102305.67
2022-11-21T02:38:36.827Z,102308.36
2022-11-21T02:41:27.403Z,102305.14
2022-11-21T02:44:23.451Z,102305.05
2022-11-21T02:46:54.301Z,102301.70
2022-11-21T02:50:11.111Z,102298.48
2022-11-21T02:52:40.767Z,102300.42
2022-11-21T02:55:10.674Z,102296.31
2022-11-21T02:57:41.394Z,102293.21
2022-11-21T03:00:12.653Z,102287.56
2022-11-21T03:02:42.576Z,102288.02
2022-11-21T03:05:14.016Z,102290.51
2022-11-21T03:07:44.053Z,102292.65
2022-11-21T03:10:15.001Z,102289.20
2022-11-21T03:12:45.288Z,102289.77
2022-11-21T03:15:16.305Z,102290.84
2022-11-21T03:17:45.649Z,102292.63
2022-11-21T03:20:15.340Z,102294.79
2022-11-21T03:22:44.707Z,102299.59
2022-11-21T03:25:14.782Z,102302.80
2022-11-21T03:27:44.166Z,102305.06
2022-11-21T03:30:14.488Z,102307.09
2022-11-21T03:32:44.247Z,102308.59
2022-11-21T03:35:13.599Z,102313.17
2022-11-21T03:37:43.391Z,102319.84
2022-11-21T03:40:15.754Z,102321.87
2022-11-21T03:42:45.356Z,102328.37
2022-11-21T03:45:15.153Z,102327.61
2022-11-21T03:47:44.891Z,102332.27
2022-11-21T03:50:16.042Z,102334.56
2022-11-21T03:52:45.355Z,102335.74
2022-11-21T03:55:15.301Z,102339.38
2022-11-21T03:57:44.426Z,102340.77
2022-11-21T04:00:15.170Z,102339.11
2022-11-21T04:02:44.745Z,102342.63
2022-11-21T04:05:14.059Z,102342.17
2022-11-21T04:07:43.676Z,102344.83
2022-11-21T04:10:12.864Z,102340.64
2022-11-21T04:12:41.914Z,102342.51
2022-11-21T04:15:13.976Z,102343.15
2022-11-21T04:17:44.631Z,102341.15
2022-11-21T04:20:14.347Z,102340.61
2022-11-21T04:22:43.636Z,102335.24
2022-11-21T04:25:15.626Z,102333.04
2022-11-21T04:27:45.280Z,102332.79
2022-11-21T04:30:15.184Z,102330.61
2022-11-21T04:32:45.470Z,102332.09
2022-11-21T04:35:15.479Z,102334.74
2022-11-21T04:37:44.860Z,102342.66
2022-11-21T04:40:15.754Z,102344.62
2022-11-21T04:42:50.058Z,102348.77
2022-11-21T04:45:19.965Z,102351.50
2022-11-21T04:47:51.696Z,102358.74
2022-11-21T04:50:21.582Z,102363.07
2022-11-21T04:52:55.633Z,102365.30
2022-11-21T04:55:27.199Z,102364.58
2022-11-21T04:57:56.356Z,102360.42
2022-11-21T05:00:26.459Z,102361.55
2022-11-21T05:02:55.752Z,102360.10
2022-11-21T05:05:25.976Z,102365.86
2022-11-21T05:07:55.698Z,102367.70
2022-11-21T05:10:25.206Z,102364.70
2022-11-21T05:13:21.858Z,102365.52
2022-11-21T05:15:55.286Z,102366.87
2022-11-21T05:18:25.436Z,102369.60
2022-11-21T05:20:54.833Z,102365.98
2022-11-21T05:23:24.230Z,102368.20
2022-11-21T05:25:53.497Z,102365.94
2022-11-21T05:28:23.179Z,102364.93
2022-11-21T05:30:53.032Z,102365.12
2022-11-21T05:33:22.918Z,102365.32
2022-11-21T05:35:52.025Z,102362.42
2022-11-21T05:38:21.591Z,102359.38
2022-11-21T05:40:51.437Z,102363.86
2022-11-21T05:43:39.240Z,102361.13
2022-11-21T05:46:09.199Z,102369.36
2022-11-21T05:48:38.727Z,102375.90
2022-11-21T05:51:08.671Z,102374.13
2022-11-21T05:53:38.510Z,102378.63
2022-11-21T05:56:13.086Z,102382.55
2022-11-21T05:58:42.899Z,102386.26
2022-11-21T06:01:13.605Z,102388.33
2022-11-21T06:03:44.330Z,102395.38
2022-11-21T06:06:22.184Z,102396.58
2022-11-21T06:08:54.462Z,102398.13
2022-11-21T06:11:23.747Z,102398.30
2022-11-21T06:13:54.134Z,102400.05
2022-11-21T06:16:23.851Z,102403.95
2022-11-21T06:18:58.380Z,102405.19
2022-11-21T06:21:29.956Z,102412.41
2022-11-21T06:24:01.356Z,102412.55
2022-11-21T06:26:30.748Z,102417.14
2022-11-21T06:29:00.364Z,102422.80
2022-11-21T06:31:30.097Z,102420.21
2022-11-21T06:34:00.984Z,102422.83
2022-11-21T06:36:30.620Z,102416.15
2022-11-21T06:39:00.534Z,102414.04
2022-11-21T06:41:32.094Z,102416.69
2022-11-21T06:44:02.790Z,102416.09
2022-11-21T06:46:32.215Z,102420.68
2022-11-21T06:49:02.079Z,102419.13
2022-11-21T06:51:31.749Z,102423.92
2022-11-21T06:54:01.548Z,102422.52
2022-11-21T06:56:32.157Z,102423.56
2022-11-21T06:59:01.547Z,102423.14
2022-11-21T07:01:31.134Z,102426.91
2022-11-21T07:04:00.665Z,102428.16
2022-11-21T07:06:30.001Z,102429.13
2022-11-21T07:09:31.546Z,102430.66
2022-11-21T07:11:48.606Z,102433.35
2022-11-21T07:14:19.708Z,102432.36
2022-11-21T07:16:49.879Z,102429.24
2022-11-21T07:19:19.184Z,102434.44
2022-11-21T07:21:48.534Z,102429.86
2022-11-21T07:24:17.703Z,102431.85
2022-11-21T07:26:47.138Z,102431.10
2022-11-21T07:29:16.126Z,102436.09
2022-11-21T07:31:45.831Z,102434.47
2022-11-21T07:34:15.456Z,102436.95
2022-11-21T07:36:45.400Z,102435.38
2022-11-21T07:39:14.826Z,102435.73
2022-11-21T07:41:44.231Z,102432.66
2022-11-21T07:44:14.231Z,102431.67
2022-11-21T07:46:43.911Z,102436.16
2022-11-21T07:49:13.359Z,102441.16
2022-11-21T07:51:42.868Z,102442.37
2022-11-21T07:54:12.005Z,102442.63
2022-11-21T07:56:41.194Z,102438.05
2022-11-21T07:59:10.345Z,102437.02
2022-11-21T08:01:42.689Z,102437.69
2022-11-21T08:04:15.927Z,102437.52
2022-11-21T08:06:51.573Z,102431.23
2022-11-21T08:09:20.733Z,102431.46
2022-11-21T08:11:50.357Z,102431.42
2022-11-21T08:14:19.494Z,102437.81
2022-11-21T08:16:49.989Z,102438.48
2022-11-21T08:19:19.604Z,102436.02
2022-11-21T08:21:49.701Z,102435.03
2022-11-21T08:24:18.985Z,102431.35
2022-11-21T08:26:48.271Z,102433.73
2022-11-21T08:29:17.750Z,102438.98
2022-11-21T08:31:47.094Z,102440.17
2022-11-21T08:34:16.624Z,102439.82
2022-11-21T08:36:46.507Z,102438.55
2022-11-21T08:39:15.667Z,102443.74
2022-11-21T08:42:06.621Z,102435.81
2022-11-21T08:44:36.788Z,102428.90
2022-11-21T08:47:07.674Z,102428.73
2022-11-21T08:49:37.129Z,102432.70
2022-11-21T08:52:06.795Z,102429.79
2022-11-21T08:54:36.543Z,102433.25
2022-11-21T08:57:06.053Z,102434.50
2022-11-21T08:59:35.428Z,102431.30
2022-11-21T09:02:05.022Z,102428.80
2022-11-21T09:04:34.849Z,102428.98
2022-11-21T09:07:05.277Z,102428.15
2022-11-21T09:09:35.258Z,102423.38
2022-11-21T09:12:04.532Z,102412.58
2022-11-21T09:14:52.090Z,102409.63
2022-11-21T09:17:39.901Z,102406.96
2022-11-21T09:20:08.877Z,102405.45
2022-11-21T09:22:37.698Z,102403.08
2022-11-21T09:25:08.351Z,102401.42
2022-11-21T09:27:38.026Z,102399.71
2022-11-21T09:30:07.259Z,102403.66
2022-11-21T09:32:36.750Z,102403.34
2022-11-21T09:35:06.487Z,102400.79
2022-11-21T09:37:42.067Z,102397.50
2022-11-21T09:40:16.074Z,102396.08
2022-11-21T09:42:51.343Z,102391.11
2022-11-21T09:45:20.389Z,102389.70
2022-11-21T09:47:53.191Z,102389.52
2022-11-21T09:50:24.543Z,102391.97
2022-11-21T09:52:53.301Z,102398.77
2022-11-21T09:55:34.406Z,102400.39
2022-11-21T09:58:05.500Z,102399.54
2022-11-21T10:00:35.461Z,102400.23
2022-11-21T10:03:04.169Z,102402.32
2022-11-21T10:05:40.589Z,102402.31
2022-11-21T10:08:39.031Z,102396.90
2022-11-21T10:11:17.884Z,102393.34
2022-11-21T10:13:59.829Z,102392.75
2022-11-21T10:16:32.113Z,102396.40
2022-11-21T10:19:23.434Z,102400.02
2022-11-21T10:22:10.139Z,102403.11
2022-11-21T10:24:42.829Z,102404.83
2022-11-21T10:27:21.584Z,102405.33
2022-11-21T10:30:10.648Z,102405.03
2022-11-21T10:32:42.537Z,102406.89
2022-11-21T10:35:31.924Z,102404.33
2022-11-21T10:38:03.509Z,102405.83
2022-11-21T10:40:35.983Z,102409.96
2022-11-21T10:43:28.219Z,102407.79
2022-11-21T10:45:57.381Z,102410.33
2022-11-21T10:48:26.599Z,102414.66
2022-11-21T10:51:01.621Z,102416.55
2022-11-21T10:53:49.609Z,102411.41
2022-11-21T10:56:23.944Z,102411.23
2022-11-21T10:58:57.309Z,102411.35
2022-11-21T11:01:31.529Z,102417.66
2022-11-21T11:04:45.622Z,102420.33
2022-11-21T11:07:24.041Z,102419.73
2022-11-21T11:09:53.986Z,102421.27
2022-11-21T11:12:48.518Z,102424.31
2022-11-21T11:15:22.541Z,102431.80
2022-11-21T11:18:09.098Z,102433.83
2022-11-21T11:20:39.028Z,102434.29
2022-11-21T11:23:21.073Z,102432.45
2022-11-21T11:25:51.274Z,102422.70
2022-11-21T11:28:26.162Z,102418.77
2022-11-21T11:30:59.100Z,102413.56
2022-11-21T11:33:37.088Z,102412.19
2022-11-21T11:36:05.948Z,102410.46
2022-11-21T11:38:35.505Z,102402.15
2022-11-21T11:41:09.927Z,102404.20
2022-11-21T11:44:13.010Z,102401.13
2022-11-21T11:47:26.346Z,102398.77
2022-11-21T11:50:14.482Z,102394.14
2022-11-21T11:52:49.711Z,102391.89
2022-11-21T11:55:38.975Z,102397.56
2022-11-21T11:58:10.963Z,102400.16
2022-11-21T12:00:52.980Z,102401.13
2022-11-21T12:03:46.977Z,102401.16
2022-11-21T12:06:21.921Z,102403.57
2022-11-21T12:08:51.122Z,102406.48
2022-11-21T12:11:44.817Z,102407.33
2022-11-21T12:14:43.117Z,102408.13
2022-11-21T12:17:12.928Z,102403.64
2022-11-21T12:19:42.364Z,102399.94
2022-11-21T12:22:13.071Z,102400.11
2022-11-21T12:24:43.482Z,102405.15
2022-11-21T12:27:15.428Z,102395.70
2022-11-21T12:29:53.243Z,102397.08
2022-11-21T12:32:28.138Z,102400.16
2022-11-21T12:34:57.376Z,102400.17
2022-11-21T12:37:41.603Z,102395.80
2022-11-21T12:40:26.429Z,102390.74
2022-11-21T12:43:13.786Z,102380.86
2022-11-21T12:45:53.298Z,102377.77
2022-11-21T12:48:40.764Z,102375.36
2022-11-21T12:51:47.014Z,102373.14
2022-11-21T12:54:34.841Z,102376.57
2022-11-21T12:57:13.676Z,102378.04
2022-11-21T12:59:55.069Z,102375.41
2022-11-21T13:02:30.118Z,102376.75
2022-11-21T13:05:00.086Z,102375.29
2022-11-21T13:07:30.720Z,102381.42
2022-11-21T13:10:01.112Z,102384.63
2022-11-21T13:12:29.827Z,102388.02
2022-11-21T13:15:34.130Z,102385.87
2022-11-21T13:18:21.790Z,102384.48
2022-11-21T13:20:51.706Z,102379.86
2022-11-21T13:23:39.051Z,102371.81
2022-11-21T13:26:26.322Z,102371.20
2022-11-21T13:29:10.335Z,102373.33
2022-11-21T13:31:39.175Z,102369.43
2022-11-21T13:34:28.260Z,102368.81
2022-11-21T13:36:57.141Z,102366.88
2022-11-21T13:39:31.094Z,102363.13
2022-11-21T13:42:20.691Z,102361.48
2022-11-21T13:44:50.698Z,102361.48
2022-11-21T13:47:28.677Z,102355.69
2022-11-21T13:50:00.529Z,102352.70
2022-11-21T13:52:34.954Z,102345.94
2022-11-21T13:55:12.768Z,102348.79
2022-11-21T13:58:06.629Z,102350.58
2022-11-21T14:00:51.452Z,102355.75
2022-11-21T14:03:36.019Z,102358.53
2022-11-21T14:06:07.865Z,102359.79
2022-11-21T14:08:37.290Z,102360.45
2022-11-21T14:11:26.412Z,102360.63
2022-11-21T14:13:55.648Z,102358.23
2022-11-21T14:16:31.051Z,102354.70
2022-11-21T14:19:00.460Z,102358.57
2022-11-21T14:21:30.531Z,102362.23
2022-11-21T14:24:06.808Z,102362.86
2022-11-21T14:26:45.021Z,102366.09
2022-11-21T14:29:29.526Z,102366.69
2022-11-21T14:31:59.523Z,102363.88
2022-11-21T14:34:29.951Z,102363.30
2022-11-21T14:37:04.997Z,102364.78
2022-11-21T14:39:38.772Z,102360.30
2022-11-21T14:42:15.376Z,102358.18
2022-11-21T14:44:44.762Z,102355.69
2022-11-21T14:47:24.718Z,102357.36
2022-11-21T14:50:02.414Z,102352.83
2022-11-21T14:52:35.773Z,102355.38
2022-11-21T14:57:56.052Z,102352.34
2022-11-21T15:03:22.045Z,102350.80
2022-11-21T15:11:39.580Z,102358.83
2022-11-21T15:17:07.463Z,102361.11
2022-11-21T15:19:36.571Z,102360.40
2022-11-21T15:22:05.850Z,102360.55
2022-11-21T15:24:34.789Z,102359.83
2022-11-21T15:27:02.906Z,102356.79
2022-11-21T15:29:32.970Z,102359.12
2022-11-21T15:32:11.456Z,102358.88
2022-11-21T15:34:45.410Z,102361.17
2022-11-21T15:37:16.679Z,102357.39
2022-11-21T15:39:46.539Z,102359.58
2022-11-21T15:42:34.064Z,102363.33
2022-11-21T15:45:22.865Z,102356.15
2022-11-21T15:47:52.757Z,102356.58
2022-11-21T15:50:25.159Z,102348.70
2022-11-21T15:52:55.112Z,102348.58
2022-11-21T15:55:32.632Z,102346.58
2022-11-21T15:57:13.406Z,102357.69
2022-11-21T15:58:01.716Z,102346.86
2022-11-21T16:00:30.444Z,102345.99
2022-11-21T16:02:59.230Z,102348.80
2022-11-21T16:05:28.521Z,102350.80
2022-11-21T16:07:57.908Z,102349.89
2022-11-21T16:10:28.099Z,102349.02
2022-11-21T16:12:56.978Z,102344.60
2022-11-21T16:15:25.884Z,102346.83
2022-11-21T16:17:54.766Z,102345.54
2022-11-21T16:20:23.941Z,102345.64
2022-11-21T16:22:52.785Z,102346.70
2022-11-21T16:25:21.556Z,102346.73
2022-11-21T16:27:50.553Z,102348.52
2022-11-21T16:30:20.954Z,102347.86
2022-11-21T16:32:50.105Z,102352.36
2022-11-21T16:35:19.029Z,102353.36
2022-11-21T16:37:47.871Z,102357.64
2022-11-21T16:40:16.930Z,102354.36
2022-11-21T16:42:46.975Z,102357.67
2022-11-21T16:45:15.970Z,102360.55
2022-11-21T16:47:48.773Z,102362.19
2022-11-21T16:50:18.514Z,102367.65
2022-11-21T16:52:47.196Z,102366.86
2022-11-21T16:55:18.728Z,102363.30
2022-11-21T16:57:47.870Z,102362.58
2022-11-21T17:00:17.386Z,102362.05
2022-11-21T17:02:47.151Z,102359.54
2022-11-21T17:05:16.685Z,102362.61
2022-11-21T17:07:47.224Z,102365.34
2022-11-21T17:10:17.088Z,102366.18
2022-11-21T17:12:47.173Z,102369.06
2022-11-21T17:15:17.162Z,102371.23
2022-11-21T17:17:46.254Z,102370.28
2022-11-21T17:20:15.327Z,102369.27
2022-11-21T17:22:44.590Z,102370.34
2022-11-21T17:25:14.294Z,102363.14
2022-11-21T17:27:43.341Z,102363.19
2022-11-21T17:30:12.750Z,102356.64
2022-11-21T17:32:41.572Z,102350.33
2022-11-21T17:35:10.944Z,102349.30
2022-11-21T17:37:39.966Z,102348.56
2022-11-21T17:40:13.361Z,102349.95
2022-11-21T17:42:44.771Z,102350.34
2022-11-21T17:45:13.641Z,102347.77
2022-11-21T17:47:44.319Z,102347.08
2022-11-21T17:50:13.662Z,102347.09
2022-11-21T17:52:42.567Z,102346.40
2022-11-21T17:55:11.389Z,102355.34
2022-11-21T17:57:40.422Z,102355.83
2022-11-21T18:00:09.699Z,102356.84
2022-11-21T18:02:38.415Z,102362.33
2022-11-21T18:05:07.658Z,102362.04
2022-11-21T18:07:36.906Z,102360.28
2022-11-21T18:10:35.189Z,102361.90
2022-11-21T18:12:55.497Z,102362.23
2022-11-21T18:15:24.320Z,102364.11
2022-11-21T18:17:53.478Z,102363.58
2022-11-21T18:20:22.469Z,102364.56
2022-11-21T18:22:52.108Z,102361.63
2022-11-21T18:25:21.598Z,102363.64
2022-11-21T18:27:54.685Z,102369.63
2022-11-21T18:30:23.853Z,102374.95
2022-11-21T18:32:52.777Z,102376.46
2022-11-21T18:35:21.552Z,102378.36
2022-11-21T18:37:50.824Z,102378.70
2022-11-21T18:40:20.138Z,102378.15
2022-11-21T18:42:48.961Z,102371.81
2022-11-21T18:45:17.825Z,102369.30
2022-11-21T18:47:48.362Z,102363.33
2022-11-21T18:50:17.526Z,102358.46
2022-11-21T18:52:46.998Z,102351.56
2022-11-21T18:55:16.020Z,102349.54
2022-11-21T18:57:44.863Z,102342.81
2022-11-21T19:00:14.375Z,102342.29
2022-11-21T19:02:43.535Z,102339.90
2022-11-21T19:05:17.581Z,102331.36
2022-11-21T19:07:49.535Z,102323.73
2022-11-21T19:10:42.002Z,102322.38
2022-11-21T19:13:07.737Z,102318.60
2022-11-21T19:15:39.369Z,102315.98
2022-11-21T19:18:08.766Z,102309.21
2022-11-21T19:20:38.398Z,102303.33
2022-11-21T19:23:07.269Z,102297.11
2022-11-21T19:25:36.833Z,102294.55
2022-11-21T19:28:06.352Z,102288.34
2022-11-21T19:30:35.674Z,102290.42
2022-11-21T19:33:04.665Z,102290.09
2022-11-21T19:35:33.918Z,102293.19
2022-11-21T19:38:03.804Z,102289.34
2022-11-21T19:40:52.755Z,102293.43
2022-11-21T19:43:21.860Z,102290.43
2022-11-21T19:45:57.736Z,102286.89
2022-11-21T19:48:27.387Z,102285.54
2022-11-21T19:50:59.830Z,102286.66
2022-11-21T19:53:29.114Z,102294.91
2022-11-21T19:55:58.208Z,102300.23
2022-11-21T19:58:28.573Z,102298.80
2022-11-21T20:01:06.571Z,102295.30
2022-11-21T20:03:36.389Z,102291.05
2022-11-21T20:06:11.083Z,102286.51
2022-11-21T20:08:40.275Z,102285.23
2022-11-21T20:11:14.636Z,102289.33
2022-11-21T20:13:44.314Z,102287.91
2022-11-21T20:16:27.037Z,102289.41
2022-11-21T20:18:59.592Z,102289.38
2022-11-21T20:21:29.025Z,102286.20
2022-11-21T20:23:57.869Z,102280.63
2022-11-21T20:26:27.256Z,102275.89
2022-11-21T20:28:56.063Z,102275.98
2022-11-21T20:31:26.044Z,102272.05
2022-11-21T20:33:55.849Z,102268.49
2022-11-21T20:36:25.349Z,102258.61
2022-11-21T20:38:55.648Z,102249.23
2022-11-21T20:41:25.301Z,102243.10
2022-11-21T20:46:47.087Z,102226.35
2022-11-21T20:49:15.872Z,102224.39
2022-11-21T20:54:34.100Z,102222.65
2022-11-21T20:57:03.259Z,102219.56
2022-11-21T20:59:32.620Z,102222.65
2022-11-21T21:02:01.895Z,102227.84
2022-11-21T21:04:31.303Z,102223.77
2022-11-21T21:07:00.280Z,102218.51
2022-11-21T21:09:29.639Z,102212.50
2022-11-21T21:11:58.566Z,102207.98
2022-11-21T21:14:27.697Z,102204.85
2022-11-21T21:16:56.696Z,102203.98
2022-11-21T21:19:25.997Z,102208.81
2022-11-21T21:21:55.038Z,102214.67
2022-11-21T21:24:24.032Z,102219.39
2022-11-21T21:26:53.375Z,102229.58
2022-11-21T21:29:22.568Z,102233.39
2022-11-21T21:31:52.643Z,102229.61
2022-11-21T21:34:22.919Z,102228.88
2022-11-21T21:36:52.622Z,102221.40
2022-11-21T21:39:21.960Z,102217.59
2022-11-21T21:41:51.043Z,102214.52
2022-11-21T21:44:20.308Z,102214.34
2022-11-21T21:46:49.374Z,102216.05
2022-11-21T21:49:18.905Z,102213.63
2022-11-21T21:51:48.026Z,102210.56
2022-11-21T21:54:21.798Z,102204.39
2022-11-21T21:56:52.133Z,102198.73
2022-11-21T21:59:21.749Z,102195.70
2022-11-21T22:01:50.936Z,102191.89
2022-11-21T22:04:19.957Z,102190.40
2022-11-21T22:06:49.282Z,102193.88
2022-11-21T22:09:18.730Z,102192.15
2022-11-21T22:11:47.838Z,102189.35
2022-11-21T22:14:18.568Z,102193.30
2022-11-21T22:16:48.467Z,102195.55
2022-11-21T22:19:17.332Z,102195.02
2022-11-21T22:21:46.252Z,102195.88
2022-11-21T22:24:26.091Z,102194.62
2022-11-21T22:26:55.907Z,102193.90
2022-11-21T22:29:25.579Z,102193.78
2022-11-21T22:31:54.765Z,102196.92
2022-11-21T22:34:24.062Z,102195.32
2022-11-21T22:36:53.426Z,102196.55
2022-11-21T22:39:22.596Z,102202.27
2022-11-21T22:41:54.604Z,102207.30
2022-11-21T22:44:26.407Z,102202.69
2022-11-21T22:46:55.556Z,102199.06
2022-11-21T22:49:24.519Z,102199.79
2022-11-21T22:51:53.816Z,102196.98
2022-11-21T22:54:22.965Z,102196.77
2022-11-21T22:56:52.175Z,102198.61
2022-11-21T22:59:21.197Z,102200.13
2022-11-21T23:01:50.158Z,102199.94
2022-11-21T23:04:19.288Z,102200.08
2022-11-21T23:06:48.410Z,102189.52
2022-11-21T23:09:17.355Z,102183.27
2022-11-21T23:11:45.918Z,102176.17
2022-11-21T23:14:15.097Z,102174.96
2022-11-21T23:16:44.223Z,102177.69
2022-11-21T23:19:13.031Z,102175.61
2022-11-21T23:21:41.850Z,102175.80
2022-11-21T23:24:11.223Z,102173.55
2022-11-21T23:26:40.011Z,102173.74
2022-11-21T23:29:09.291Z,102175.72
2022-11-21T23:31:38.012Z,102180.50
2022-11-21T23:34:07.645Z,102179.33
2022-11-21T23:36:37.165Z,102180.31
2022-11-21T23:39:06.200Z,102179.02
2022-11-21T23:41:34.883Z,102176.30
2022-11-21T23:44:04.220Z,102174.79
2022-11-21T23:46:32.984Z,102179.19
2022-11-21T23:49:02.177Z,102186.66
2022-11-21T23:51:31.270Z,102191.40
2022-11-21T23:54:00.024Z,102197.75
2022-11-21T23:56:29.015Z,102202.00
2022-11-21T23:58:57.908Z,102189.80
